createdAt,value
2022-08-09T00:02:35.281Z,15.28
2022-08-09T01:22:34.875Z,14.37
2022-08-09T01:42:34.779Z,14.2
2022-08-09T02:02:34.943Z,13.82
2022-08-09T02:22:35.076Z,13.52
2022-08-09T03:02:35.043Z,13.65
2022-08-09T03:22:41.255Z,13.62
2022-08-09T03:42:34.650Z,13.33
2022-08-09T04:02:34.618Z,13.17
2022-08-09T04:22:34.532Z,13.31
2022-08-09T04:42:35.379Z,13.19
2022-08-09T05:02:34.596Z,13.33
2022-08-09T05:22:35.126Z,13.91
2022-08-09T05:42:34.584Z,14.81
2022-08-09T06:02:34.600Z,15.78
2022-08-09T06:22:34.437Z,16.58
2022-08-09T07:22:34.491Z,18.58
2022-08-09T07:42:34.213Z,19.43
2022-08-09T08:02:34.173Z,20.98
2022-08-09T08:22:34.169Z,22.08
2022-08-09T08:42:34.042Z,23.18
2022-08-09T09:42:33.958Z,25.93
2022-08-09T10:02:33.927Z,26.53
2022-08-09T10:22:34.084Z,26.98
2022-08-09T10:42:33.920Z,27.72
2022-08-09T11:03:07.206Z,27.78
2022-08-09T11:22:33.628Z,28.09
2022-08-09T11:42:33.727Z,28.49
2022-08-09T12:02:34.921Z,29.1
2022-08-09T12:22:33.667Z,29.28
2022-08-09T12:42:33.704Z,29.68
2022-08-09T13:02:33.525Z,29.99
2022-08-09T13:23:00.168Z,30.01
2022-08-09T13:42:33.522Z,30.53
2022-08-09T14:02:33.284Z,30.18
2022-08-09T14:22:33.470Z,29.8
2022-08-09T14:42:33.208Z,30.2
2022-08-09T15:02:33.428Z,29.64
2022-08-09T15:22:33.368Z,29.73
2022-08-09T15:42:33.320Z,29.13
2022-08-09T16:02:33.068Z,29.12
2022-08-09T16:22:33.223Z,28.79
2022-08-09T16:42:32.964Z,28.41
2022-08-09T17:02:32.920Z,28.12
2022-08-09T17:42:51.257Z,27.17
2022-08-09T18:42:33.225Z,25.52
2022-08-09T19:02:33.087Z,24.7
2022-08-09T19:22:32.856Z,23.91
2022-08-09T20:04:07.719Z,21.91
2022-08-09T20:22:32.603Z,21.23
2022-08-09T21:22:36.422Z,20.22
2022-08-09T21:42:32.336Z,20.04
2022-08-09T22:02:36.095Z,19.74
2022-08-09T22:22:33.785Z,19.53
2022-08-09T22:42:32.466Z,19.21
2022-08-09T23:02:32.163Z,18.95
2022-08-09T23:22:32.125Z,18.48
2022-08-09T23:42:32.212Z,17.86
